createdAt,value
2018-09-24T00:00:25.197Z,1.40
2018-09-24T00:02:28.533Z,1.00
2018-09-24T00:04:32.035Z,1.20
2018-09-24T00:06:35.797Z,1.30
2018-09-24T00:08:39.296Z,1.32
2018-09-24T00:10:42.972Z,1.20
2018-09-24T00:12:46.157Z,1.20
2018-09-24T00:14:49.349Z,1.30
2018-09-24T00:16:52.528Z,1.40
2018-09-24T00:18:55.988Z,1.50
2018-09-24T00:20:59.460Z,1.20
2018-09-24T00:23:02.940Z,1.10
2018-09-24T00:25:06.705Z,1.50
2018-09-24T00:27:10.168Z,1.27
2018-09-24T00:29:13.434Z,1.80
2018-09-24T00:31:16.889Z,1.37
2018-09-24T00:33:20.356Z,1.40
2018-09-24T00:35:23.575Z,1.00
2018-09-24T00:37:26.772Z,1.17
2018-09-24T00:39:29.974Z,1.10
2018-09-24T00:41:33.710Z,1.30
2018-09-24T00:43:37.145Z,1.10
2018-09-24T00:45:40.334Z,1.20
2018-09-24T00:47:43.550Z,1.50
2018-09-24T00:49:47.008Z,1.00
2018-09-24T00:51:50.468Z,1.20
2018-09-24T00:53:54.060Z,1.00
2018-09-24T00:55:57.524Z,1.10
2018-09-24T00:58:01.289Z,1.00
2018-09-24T01:00:04.844Z,0.93
2018-09-24T01:02:08.704Z,1.00
2018-09-24T01:04:12.152Z,1.00
2018-09-24T01:06:15.960Z,1.10
2018-09-24T01:08:19.456Z,1.20
2018-09-24T01:10:22.900Z,1.00
2018-09-24T01:12:26.114Z,1.00
2018-09-24T01:14:29.315Z,0.90
2018-09-24T01:16:32.760Z,1.00
2018-09-24T01:18:36.206Z,0.80
2018-09-24T01:20:39.934Z,0.80
2018-09-24T01:22:43.379Z,0.88
2018-09-24T01:24:46.840Z,0.80
2018-09-24T01:26:50.400Z,1.00
2018-09-24T01:28:53.874Z,0.90
2018-09-24T01:30:57.044Z,0.98
2018-09-24T01:33:00.239Z,1.20
2018-09-24T01:35:04.000Z,0.95
2018-09-24T01:37:07.808Z,1.40
2018-09-24T01:39:11.300Z,1.00
2018-09-24T01:41:14.716Z,1.00
2018-09-24T01:43:17.900Z,1.30
2018-09-24T01:45:21.537Z,1.10
2018-09-24T01:47:25.008Z,1.15
2018-09-24T01:49:28.797Z,1.27
2018-09-24T01:51:36.268Z,1.20
2018-09-24T01:53:39.723Z,1.00
2018-09-24T01:55:48.284Z,1.00
2018-09-24T01:57:51.735Z,1.10
2018-09-24T01:59:56.506Z,1.20
2018-09-24T02:02:00.064Z,1.10
2018-09-24T02:04:03.243Z,1.15
2018-09-24T02:06:06.498Z,1.30
2018-09-24T02:08:09.689Z,1.10
2018-09-24T02:10:12.885Z,1.43
2018-09-24T02:12:16.879Z,1.30
2018-09-24T02:14:20.652Z,1.70
2018-09-24T02:16:24.425Z,1.30
2018-09-24T02:18:28.064Z,1.72
2018-09-24T02:20:31.816Z,1.55
2018-09-24T02:22:35.277Z,1.42
2018-09-24T02:24:38.762Z,1.70
2018-09-24T02:26:42.596Z,1.40
2018-09-24T02:28:46.066Z,1.57
2018-09-24T02:30:49.341Z,1.90
2018-09-24T02:32:53.124Z,1.60
2018-09-24T02:34:58.314Z,1.50
2018-09-24T02:37:02.104Z,1.30
2018-09-24T02:39:07.168Z,1.65
2018-09-24T02:41:11.148Z,1.70
2018-09-24T02:43:17.899Z,1.32
2018-09-24T02:45:21.685Z,2.10
2018-09-24T02:47:28.409Z,1.80
2018-09-24T02:49:31.870Z,1.57
2018-09-24T02:51:35.321Z,1.90
2018-09-24T02:53:40.927Z,1.47
2018-09-24T02:55:44.724Z,2.00
2018-09-24T02:57:47.915Z,1.77
2018-09-24T02:59:51.913Z,1.90
2018-09-24T03:01:55.361Z,2.00
2018-09-24T03:03:59.188Z,1.60
2018-09-24T03:06:02.389Z,2.02
2018-09-24T03:08:08.000Z,1.95
2018-09-24T03:10:11.479Z,1.85
2018-09-24T03:12:15.434Z,2.30
2018-09-24T03:14:26.579Z,2.12
2018-09-24T03:16:29.860Z,2.40
2018-09-24T03:18:33.343Z,1.90
2018-09-24T03:20:39.014Z,1.80
2018-09-24T03:22:42.464Z,2.17
2018-09-24T03:24:45.712Z,1.90
2018-09-24T03:26:48.888Z,2.22
2018-09-24T03:28:52.892Z,1.60
2018-09-24T03:30:56.139Z,1.80
2018-09-24T03:32:59.428Z,2.02
2018-09-24T03:35:02.604Z,1.87
2018-09-24T03:37:06.212Z,1.90
2018-09-24T03:39:09.992Z,2.30
2018-09-24T03:41:13.653Z,1.75
2018-09-24T03:43:17.076Z,1.70
2018-09-24T03:45:20.936Z,1.90
2018-09-24T03:47:24.408Z,2.00
2018-09-24T03:49:27.590Z,1.63
2018-09-24T03:51:30.800Z,1.93
2018-09-24T03:53:35.082Z,1.85
2018-09-24T03:55:38.624Z,1.70
2018-09-24T03:57:42.741Z,1.62
2018-09-24T03:59:46.161Z,2.50
2018-09-24T04:01:49.892Z,1.77
2018-09-24T04:03:53.356Z,2.10
2018-09-24T04:06:02.380Z,1.82
2018-09-24T04:08:11.620Z,2.03
2018-09-24T04:10:20.449Z,1.90
2018-09-24T04:12:29.440Z,2.00
2018-09-24T04:14:38.584Z,1.90
2018-09-24T04:16:48.352Z,1.70
2018-09-24T04:18:57.480Z,1.30
2018-09-24T04:21:06.873Z,2.00
2018-09-24T04:23:16.031Z,1.72
2018-09-24T04:25:24.928Z,1.80
2018-09-24T04:27:33.881Z,2.20
2018-09-24T04:29:42.817Z,2.40
2018-09-24T04:31:51.818Z,1.97
2018-09-24T04:34:00.513Z,2.00
2018-09-24T04:36:09.445Z,1.60
2018-09-24T04:38:19.004Z,1.57
2018-09-24T04:40:27.985Z,1.70
2018-09-24T04:42:36.920Z,1.90
2018-09-24T04:44:45.834Z,2.40
2018-09-24T04:46:54.807Z,2.10
2018-09-24T04:49:03.479Z,1.87
2018-09-24T04:51:13.344Z,2.03
2018-09-24T04:53:22.008Z,1.62
2018-09-24T04:55:30.737Z,2.20
2018-09-24T04:57:39.797Z,1.90
2018-09-24T04:59:48.797Z,2.37
2018-09-24T05:01:57.833Z,1.90
2018-09-24T05:04:06.671Z,1.70
2018-09-24T05:06:15.516Z,2.43
2018-09-24T05:08:24.700Z,2.40
2018-09-24T05:10:33.953Z,2.27
2018-09-24T05:12:42.936Z,1.80
2018-09-24T05:14:51.996Z,2.20
2018-09-24T05:17:01.025Z,1.43
2018-09-24T05:19:10.180Z,2.30
2018-09-24T05:21:19.096Z,1.97
2018-09-24T05:23:28.649Z,1.50
2018-09-24T05:25:38.126Z,1.53
2018-09-24T05:27:47.668Z,1.77
2018-09-24T05:29:57.239Z,1.70
2018-09-24T05:32:06.224Z,1.50
2018-09-24T05:34:15.245Z,1.50
2018-09-24T05:36:24.253Z,1.60
2018-09-24T05:38:33.416Z,1.60
2018-09-24T05:40:42.861Z,1.30
2018-09-24T05:42:51.862Z,1.70
2018-09-24T05:45:00.756Z,2.00
2018-09-24T05:47:10.005Z,1.60
2018-09-24T05:49:19.123Z,1.40
2018-09-24T05:51:27.958Z,1.87
2018-09-24T05:53:37.009Z,1.30
2018-09-24T05:55:45.796Z,1.50
2018-09-24T05:57:54.661Z,1.60
2018-09-24T06:00:03.452Z,1.70
2018-09-24T06:02:12.448Z,1.40
2018-09-24T06:04:21.184Z,1.43
2018-09-24T06:06:30.606Z,1.35
2018-09-24T06:08:39.256Z,1.20
2018-09-24T06:10:48.412Z,1.40
2018-09-24T06:15:11.452Z,1.60
2018-09-24T06:17:20.456Z,1.40
2018-09-24T06:19:32.854Z,1.13
2018-09-24T06:21:41.772Z,1.10
2018-09-24T06:23:51.550Z,1.20
2018-09-24T06:26:00.536Z,1.20
2018-09-24T06:28:09.561Z,1.00
2018-09-24T06:30:19.636Z,1.10
2018-09-24T06:32:28.916Z,1.10
2018-09-24T06:34:38.010Z,1.07
2018-09-24T06:36:47.320Z,1.40
2018-09-24T06:38:56.276Z,1.50
2018-09-24T06:41:05.197Z,1.20
2018-09-24T06:43:14.380Z,1.00
2018-09-24T06:45:23.294Z,1.00
2018-09-24T06:47:32.659Z,1.10
2018-09-24T06:49:41.665Z,1.50
2018-09-24T06:51:50.759Z,1.10
2018-09-24T06:53:59.710Z,1.27
2018-09-24T06:56:08.643Z,1.00
2018-09-24T06:58:17.282Z,1.00
2018-09-24T07:00:26.196Z,1.20
2018-09-24T07:02:35.397Z,1.10
2018-09-24T07:04:44.412Z,0.90
2018-09-24T07:06:53.410Z,0.90
2018-09-24T07:09:02.349Z,1.12
2018-09-24T07:11:11.399Z,1.10
2018-09-24T07:13:20.862Z,1.30
2018-09-24T07:15:30.072Z,1.20
2018-09-24T07:17:38.548Z,1.10
2018-09-24T07:19:47.370Z,1.20
2018-09-24T07:21:56.309Z,1.27
2018-09-24T07:24:05.188Z,1.03
2018-09-24T07:26:14.556Z,1.20
2018-09-24T07:28:23.982Z,1.60
2018-09-24T07:30:33.010Z,1.30
2018-09-24T07:32:41.748Z,1.40
2018-09-24T07:34:50.895Z,1.10
2018-09-24T07:36:59.825Z,1.30
2018-09-24T07:39:08.820Z,1.00
2018-09-24T07:41:17.664Z,1.10
2018-09-24T07:43:26.700Z,1.33
2018-09-24T07:45:36.097Z,1.20
2018-09-24T07:47:45.013Z,1.40
2018-09-24T07:49:54.256Z,1.27
2018-09-24T07:52:03.051Z,1.37
2018-09-24T07:54:11.944Z,1.30
2018-09-24T07:56:20.700Z,1.20
2018-09-24T07:58:29.596Z,1.40
2018-09-24T08:00:38.689Z,1.30
2018-09-24T08:02:47.763Z,1.40
2018-09-24T08:04:56.837Z,1.17
2018-09-24T08:07:06.305Z,1.30
2018-09-24T08:09:15.412Z,1.50
2018-09-24T08:11:24.391Z,1.20
2018-09-24T08:13:33.540Z,1.60
2018-09-24T08:15:42.480Z,1.20
2018-09-24T08:17:51.133Z,1.63
2018-09-24T08:20:00.093Z,1.40
2018-09-24T08:22:09.716Z,1.20
2018-09-24T08:24:18.450Z,1.50
2018-09-24T08:26:27.517Z,1.40
2018-09-24T08:28:36.032Z,1.30
2018-09-24T08:30:44.919Z,1.40
2018-09-24T08:32:54.124Z,1.30
2018-09-24T08:35:03.728Z,1.50
2018-09-24T08:37:13.076Z,1.60
2018-09-24T08:39:22.556Z,1.70
2018-09-24T08:41:31.639Z,1.30
2018-09-24T08:43:40.872Z,1.30
2018-09-24T08:45:49.563Z,1.10
2018-09-24T08:47:58.524Z,1.00
2018-09-24T08:50:07.836Z,1.40
2018-09-24T08:52:16.573Z,1.00
2018-09-24T08:54:25.360Z,1.40
2018-09-24T08:56:34.448Z,1.10
2018-09-24T08:58:43.519Z,1.20
2018-09-24T09:00:53.005Z,1.40
2018-09-24T09:03:02.148Z,1.23
2018-09-24T09:05:11.457Z,1.30
2018-09-24T09:07:20.196Z,1.30
2018-09-24T09:09:29.297Z,1.57
2018-09-24T09:11:38.178Z,1.50
2018-09-24T09:13:47.096Z,1.00
2018-09-24T09:15:55.998Z,1.30
2018-09-24T09:18:05.393Z,1.50
2018-09-24T09:20:14.485Z,1.30
2018-09-24T09:22:23.440Z,1.22
2018-09-24T09:24:32.352Z,1.17
2018-09-24T09:26:41.564Z,1.40
2018-09-24T09:28:50.476Z,1.37
2018-09-24T09:31:00.092Z,1.47
2018-09-24T09:33:09.268Z,1.60
2018-09-24T09:35:25.084Z,1.43
2018-09-24T09:37:34.157Z,1.50
2018-09-24T09:39:43.158Z,1.22
2018-09-24T09:41:51.996Z,1.40
2018-09-24T09:44:01.167Z,1.30
2018-09-24T09:46:09.892Z,1.30
2018-09-24T09:48:18.674Z,1.43
2018-09-24T09:50:27.896Z,1.37
2018-09-24T09:52:37.061Z,1.50
2018-09-24T09:54:46.069Z,1.30
2018-09-24T09:56:55.161Z,1.37
2018-09-24T09:59:05.703Z,1.40
2018-09-24T10:01:14.727Z,1.35
2018-09-24T10:03:23.735Z,1.52
2018-09-24T10:05:32.646Z,1.05
2018-09-24T10:07:41.608Z,1.10
2018-09-24T10:09:50.542Z,0.90
2018-09-24T10:11:59.482Z,1.17
2018-09-24T10:14:08.329Z,1.00
2018-09-24T10:16:17.750Z,1.00
2018-09-24T10:18:26.598Z,0.90
2018-09-24T10:20:35.824Z,1.00
2018-09-24T10:22:44.921Z,0.90
2018-09-24T10:24:54.097Z,1.20
2018-09-24T10:27:03.080Z,1.10
2018-09-24T10:29:12.167Z,1.00
2018-09-24T10:31:21.118Z,1.30
2018-09-24T10:33:29.684Z,1.10
2018-09-24T10:35:38.640Z,1.20
2018-09-24T10:37:47.236Z,0.90
2018-09-24T10:39:56.224Z,0.90
2018-09-24T10:42:05.224Z,0.90
2018-09-24T10:44:14.489Z,1.10
2018-09-24T10:46:23.133Z,1.10
2018-09-24T10:48:32.073Z,1.40
2018-09-24T10:50:41.011Z,0.90
2018-09-24T10:52:49.907Z,1.10
2018-09-24T10:54:58.960Z,1.00
2018-09-24T10:57:07.650Z,1.20
2018-09-24T10:59:16.352Z,1.20
2018-09-24T11:01:25.430Z,1.10
2018-09-24T11:03:34.648Z,1.10
2018-09-24T11:05:43.757Z,1.13
2018-09-24T11:07:52.760Z,1.10
2018-09-24T11:10:01.784Z,0.90
2018-09-24T11:12:10.708Z,1.00
2018-09-24T11:14:19.886Z,1.00
2018-09-24T11:16:28.724Z,0.90
2018-09-24T11:18:37.649Z,1.00
2018-09-24T11:20:46.272Z,1.00
2018-09-24T11:22:55.084Z,0.90
2018-09-24T11:25:03.789Z,1.20
2018-09-24T11:27:13.014Z,0.93
2018-09-24T11:29:21.946Z,0.80
2018-09-24T11:31:30.780Z,0.90
2018-09-24T11:33:39.671Z,0.90
2018-09-24T11:35:48.655Z,1.30
2018-09-24T11:37:57.462Z,1.30
2018-09-24T11:40:06.512Z,1.20
2018-09-24T11:42:15.397Z,1.20
2018-09-24T11:44:24.540Z,1.00
2018-09-24T11:46:34.055Z,0.93
2018-09-24T11:48:42.973Z,1.10
2018-09-24T11:50:51.980Z,0.90
2018-09-24T11:53:01.184Z,1.10
2018-09-24T11:55:10.000Z,1.20
2018-09-24T12:04:04.837Z,1.37
2018-09-24T12:06:13.627Z,1.00
2018-09-24T12:08:22.465Z,1.20
2018-09-24T12:10:31.640Z,1.10
2018-09-24T12:12:40.999Z,0.90
2018-09-24T12:14:49.836Z,1.10
2018-09-24T12:16:59.204Z,1.10
2018-09-24T12:19:08.089Z,1.10
2018-09-24T12:21:17.208Z,1.15
2018-09-24T12:23:25.912Z,1.10
2018-09-24T12:25:35.388Z,0.90
2018-09-24T12:27:44.377Z,1.20
2018-09-24T12:29:53.216Z,1.10
2018-09-24T12:32:02.036Z,1.10
2018-09-24T12:34:11.060Z,1.20
2018-09-24T12:36:20.440Z,1.00
2018-09-24T12:38:29.298Z,1.00
2018-09-24T12:40:38.268Z,1.40
2018-09-24T12:42:48.455Z,1.00
2018-09-24T12:44:57.563Z,0.93
2018-09-24T12:47:06.877Z,1.00
2018-09-24T12:49:15.912Z,1.17
2018-09-24T12:51:25.745Z,0.80
2018-09-24T12:53:34.877Z,0.70
2018-09-24T12:55:43.681Z,0.70
2018-09-24T12:57:52.334Z,0.97
2018-09-24T13:00:00.868Z,0.63
2018-09-24T13:02:09.707Z,0.57
2018-09-24T13:04:18.155Z,0.70
2018-09-24T13:06:26.913Z,0.67
2018-09-24T13:08:35.551Z,0.80
2018-09-24T13:10:44.250Z,0.70
2018-09-24T13:12:52.985Z,0.80
2018-09-24T13:15:01.713Z,0.63
2018-09-24T13:17:11.546Z,0.60
2018-09-24T13:19:20.365Z,0.90
2018-09-24T13:21:29.090Z,0.70
2018-09-24T13:23:37.772Z,0.73
2018-09-24T13:25:46.985Z,0.70
2018-09-24T13:27:55.720Z,1.00
2018-09-24T13:30:05.672Z,0.60
2018-09-24T13:32:14.706Z,0.60
2018-09-24T13:34:23.767Z,0.80
2018-09-24T13:36:33.074Z,0.70
2018-09-24T13:38:42.013Z,0.83
2018-09-24T13:40:50.860Z,0.80
2018-09-24T13:42:59.684Z,0.70
2018-09-24T13:45:08.738Z,0.90
2018-09-24T13:47:17.451Z,1.23
2018-09-24T13:49:26.167Z,0.70
2018-09-24T13:51:34.992Z,1.10
2018-09-24T13:53:44.072Z,0.90
2018-09-24T13:55:52.910Z,0.87
2018-09-24T13:58:01.854Z,1.00
2018-09-24T14:00:11.055Z,0.90
2018-09-24T14:02:20.089Z,0.70
2018-09-24T14:04:31.032Z,0.70
2018-09-24T14:06:39.985Z,0.80
2018-09-24T14:08:48.638Z,0.80
2018-09-24T14:10:57.201Z,0.73
2018-09-24T14:13:06.260Z,1.13
2018-09-24T14:15:15.704Z,0.77
2018-09-24T14:17:24.814Z,0.80
2018-09-24T14:19:33.735Z,1.00
2018-09-24T14:21:42.971Z,1.00
2018-09-24T14:23:52.023Z,0.77
2018-09-24T14:26:01.102Z,0.83
2018-09-24T14:28:10.548Z,1.20
2018-09-24T14:30:19.234Z,0.90
2018-09-24T14:32:28.034Z,1.00
2018-09-24T14:34:36.737Z,0.67
2018-09-24T14:36:46.333Z,1.03
2018-09-24T14:38:55.335Z,0.90
2018-09-24T14:41:05.654Z,0.90
2018-09-24T14:43:14.650Z,0.80
2018-09-24T14:45:23.728Z,1.27
2018-09-24T14:47:33.443Z,0.90
2018-09-24T14:49:42.237Z,0.90
2018-09-24T14:51:51.433Z,0.80
2018-09-24T14:54:00.455Z,1.00
2018-09-24T14:56:09.624Z,0.70
2018-09-24T14:58:19.641Z,0.90
2018-09-24T15:00:29.388Z,1.13
2018-09-24T15:02:38.121Z,0.90
2018-09-24T15:04:47.160Z,0.80
2018-09-24T15:06:56.608Z,1.03
2018-09-24T15:09:05.404Z,1.07
2018-09-24T15:11:14.372Z,0.90
2018-09-24T15:13:22.940Z,1.00
2018-09-24T15:15:32.224Z,0.93
2018-09-24T15:17:40.916Z,0.70
2018-09-24T15:19:49.641Z,0.80
2018-09-24T15:21:58.569Z,1.13
2018-09-24T15:24:07.332Z,0.70
2018-09-24T15:26:15.824Z,0.70
2018-09-24T15:28:24.524Z,0.60
2018-09-24T15:30:33.285Z,0.70
2018-09-24T15:32:41.927Z,0.90
2018-09-24T15:34:50.551Z,0.70
2018-09-24T15:36:59.780Z,1.03
2018-09-24T15:39:08.604Z,1.00
2018-09-24T15:41:17.652Z,0.67
2018-09-24T15:43:26.588Z,0.97
2018-09-24T15:45:35.320Z,1.00
2018-09-24T15:47:43.908Z,0.77
2018-09-24T15:49:52.491Z,0.93
2018-09-24T15:52:01.246Z,0.87
2018-09-24T15:54:10.036Z,1.07
2018-09-24T15:56:19.023Z,0.70
2018-09-24T15:58:27.869Z,0.97
2018-09-24T16:00:36.403Z,0.90
2018-09-24T16:02:44.982Z,0.80
2018-09-24T16:04:53.928Z,1.03
2018-09-24T16:07:02.596Z,0.97
2018-09-24T16:09:13.765Z,1.00
2018-09-24T16:11:22.748Z,0.70
2018-09-24T16:13:31.245Z,1.00
2018-09-24T16:15:40.776Z,1.00
2018-09-24T16:17:49.541Z,1.00
2018-09-24T16:19:58.176Z,0.80
2018-09-24T16:22:06.761Z,1.20
2018-09-24T16:24:15.432Z,0.93
2018-09-24T16:26:24.505Z,1.00
2018-09-24T16:28:33.120Z,1.67
2018-09-24T16:30:41.645Z,0.83
2018-09-24T16:32:50.437Z,1.20
2018-09-24T16:34:59.136Z,1.00
2018-09-24T16:37:07.708Z,1.13
2018-09-24T16:39:16.193Z,0.90
2018-09-24T16:41:24.770Z,1.00
2018-09-24T16:43:33.357Z,1.37
2018-09-24T16:45:42.138Z,1.20
2018-09-24T16:47:51.117Z,0.80
2018-09-24T16:49:59.852Z,1.53
2018-09-24T16:52:09.080Z,1.00
2018-09-24T16:54:17.776Z,0.63
2018-09-24T16:56:26.408Z,0.90
2018-09-24T16:58:35.436Z,0.80
2018-09-24T17:00:44.124Z,0.90
2018-09-24T17:02:52.728Z,1.10
2018-09-24T17:05:01.400Z,1.53
2018-09-24T17:07:10.605Z,1.00
2018-09-24T17:09:19.397Z,1.20
2018-09-24T17:11:28.112Z,1.07
2018-09-24T17:13:36.644Z,2.00
2018-09-24T17:15:45.656Z,1.20
2018-09-24T17:17:54.412Z,1.17
2018-09-24T17:20:03.718Z,1.97
2018-09-24T17:22:12.457Z,0.90
2018-09-24T17:24:21.180Z,1.60
2018-09-24T17:26:30.113Z,1.53
2018-09-24T17:28:38.944Z,1.40
2018-09-24T17:30:47.676Z,1.23
2018-09-24T17:32:56.984Z,1.67
2018-09-24T17:35:05.971Z,0.87
2018-09-24T17:37:14.620Z,1.60
2018-09-24T17:39:23.645Z,1.40
2018-09-24T17:41:32.189Z,1.07
2018-09-24T17:43:40.943Z,0.83
2018-09-24T17:45:49.792Z,1.47
2018-09-24T17:47:58.492Z,1.60
2018-09-24T17:50:07.192Z,0.90
2018-09-24T17:52:16.168Z,1.20
2018-09-24T17:54:24.946Z,1.37
2018-09-24T17:56:33.451Z,1.10
2018-09-24T17:58:42.002Z,1.77
2018-09-24T18:00:50.664Z,1.27
2018-09-24T18:02:59.280Z,1.10
2018-09-24T18:05:08.009Z,0.90
2018-09-24T18:07:16.672Z,1.10
2018-09-24T18:09:25.333Z,0.90
2018-09-24T18:11:33.935Z,1.63
2018-09-24T18:13:42.641Z,1.00
2018-09-24T18:15:51.852Z,1.10
2018-09-24T18:18:00.427Z,1.03
2018-09-24T18:20:09.138Z,1.03
2018-09-24T18:22:17.599Z,1.43
2018-09-24T18:24:26.268Z,1.40
2018-09-24T18:26:34.788Z,1.30
2018-09-24T18:28:43.239Z,1.10
2018-09-24T18:30:52.029Z,1.63
2018-09-24T18:33:01.136Z,0.83
2018-09-24T18:35:09.853Z,0.80
2018-09-24T18:37:18.584Z,0.73
2018-09-24T18:39:27.372Z,0.90
2018-09-24T18:41:36.112Z,0.80
2018-09-24T18:43:44.856Z,1.10
2018-09-24T18:45:53.365Z,1.20
2018-09-24T18:48:02.041Z,0.90
2018-09-24T18:50:11.109Z,1.50
2018-09-24T18:52:19.768Z,1.13
2018-09-24T18:54:28.392Z,1.23
2018-09-24T18:56:37.140Z,1.20
2018-09-24T18:58:45.904Z,1.03
2018-09-24T19:00:55.024Z,0.90
2018-09-24T19:03:03.897Z,1.47
2018-09-24T19:05:12.480Z,1.20
2018-09-24T19:07:21.003Z,1.20
2018-09-24T19:09:29.702Z,1.03
2018-09-24T19:11:38.224Z,1.27
2018-09-24T19:13:47.021Z,1.13
2018-09-24T19:15:55.749Z,1.07
2018-09-24T19:18:04.436Z,1.43
2018-09-24T19:20:13.656Z,1.20
2018-09-24T19:22:22.354Z,1.23
2018-09-24T19:24:30.923Z,1.27
2018-09-24T19:26:39.653Z,0.90
2018-09-24T19:28:48.296Z,1.30
2018-09-24T19:30:57.508Z,1.40
2018-09-24T19:33:07.240Z,1.20
2018-09-24T19:35:15.857Z,1.20
2018-09-24T19:37:24.620Z,1.80
2018-09-24T19:39:33.311Z,0.87
2018-09-24T19:41:42.034Z,1.00
2018-09-24T19:43:50.695Z,1.40
2018-09-24T19:45:59.384Z,0.90
2018-09-24T19:48:07.962Z,1.20
2018-09-24T19:50:16.465Z,0.90
2018-09-24T19:52:25.419Z,0.60
2018-09-24T19:54:34.172Z,1.30
2018-09-24T19:56:43.081Z,1.10
2018-09-24T19:58:51.493Z,1.97
2018-09-24T20:01:00.596Z,1.40
2018-09-24T20:03:09.468Z,0.90
2018-09-24T20:05:18.712Z,1.73
2018-09-24T20:07:27.388Z,1.27
2018-09-24T20:09:35.948Z,1.00
2018-09-24T20:11:44.690Z,1.20
2018-09-24T20:13:53.380Z,1.10
2018-09-24T20:16:02.141Z,1.23
2018-09-24T20:18:11.072Z,1.30
2018-09-24T20:20:19.860Z,1.00
2018-09-24T20:22:28.413Z,1.50
2018-09-24T20:24:37.131Z,1.20
2018-09-24T20:26:45.872Z,1.07
2018-09-24T20:28:54.539Z,1.50
2018-09-24T20:31:03.328Z,1.80
2018-09-24T20:33:12.992Z,0.73
2018-09-24T20:35:21.540Z,1.57
2018-09-24T20:37:30.859Z,0.90
2018-09-24T20:39:39.397Z,1.03
2018-09-24T20:41:48.681Z,1.20
2018-09-24T20:43:59.572Z,1.13
2018-09-24T20:46:08.091Z,1.10
2018-09-24T20:48:16.920Z,1.07
2018-09-24T20:50:25.697Z,0.90
2018-09-24T20:52:34.244Z,1.50
2018-09-24T20:54:43.012Z,1.60
2018-09-24T20:56:51.644Z,1.23
2018-09-24T20:59:00.633Z,1.30
2018-09-24T21:01:09.660Z,1.20
2018-09-24T21:03:18.310Z,1.30
2018-09-24T21:05:26.886Z,0.93
2018-09-24T21:07:35.543Z,1.20
2018-09-24T21:09:44.381Z,1.10
2018-09-24T21:11:53.077Z,1.40
2018-09-24T21:14:01.633Z,1.10
2018-09-24T21:16:10.688Z,0.80
2018-09-24T21:18:19.399Z,1.13
2018-09-24T21:20:28.229Z,1.60
2018-09-24T21:22:36.888Z,1.20
2018-09-24T21:24:45.409Z,0.70
2018-09-24T21:26:54.303Z,1.70
2018-09-24T21:29:03.248Z,1.50
2018-09-24T21:31:11.909Z,1.67
2018-09-24T21:33:20.290Z,0.97
2018-09-24T21:35:29.082Z,0.80
2018-09-24T21:37:38.108Z,1.37
2018-09-24T21:39:46.646Z,0.87
2018-09-24T21:41:55.433Z,2.00
2018-09-24T21:44:04.334Z,2.60
2018-09-24T21:46:13.512Z,6.70
2018-09-24T21:48:22.692Z,8.90
2018-09-24T21:50:31.527Z,10.37
2018-09-24T21:52:40.344Z,12.73
2018-09-24T21:54:49.105Z,6.77
2018-09-24T21:56:58.936Z,8.60
2018-09-24T21:59:07.641Z,5.30
2018-09-24T22:01:16.473Z,4.50
2018-09-24T22:03:25.353Z,4.70
2018-09-24T22:05:35.779Z,3.37
2018-09-24T22:07:46.177Z,3.20
2018-09-24T22:09:56.383Z,2.37
2018-09-24T22:12:05.009Z,2.00
2018-09-24T22:14:13.700Z,1.77
2018-09-24T22:16:22.374Z,1.87
2018-09-24T22:18:31.890Z,2.63
2018-09-24T22:20:41.276Z,1.70
2018-09-24T22:22:49.758Z,1.73
2018-09-24T22:24:58.885Z,1.37
2018-09-24T22:27:09.030Z,1.40
2018-09-24T22:29:18.971Z,1.70
2018-09-24T22:31:29.029Z,1.30
2018-09-24T22:33:37.975Z,1.13
2018-09-24T22:35:46.641Z,1.20
2018-09-24T22:37:55.352Z,2.07
2018-09-24T22:40:04.005Z,1.50
2018-09-24T22:42:13.392Z,1.50
2018-09-24T22:44:23.755Z,1.40
2018-09-24T22:46:33.130Z,1.30
2018-09-24T22:48:42.041Z,1.53
2018-09-24T22:50:50.902Z,1.10
2018-09-24T22:52:59.635Z,1.37
2018-09-24T22:55:08.524Z,1.60
2018-09-24T22:57:17.493Z,1.40
2018-09-24T22:59:26.304Z,1.07
2018-09-24T23:01:34.924Z,1.20
2018-09-24T23:03:43.644Z,1.00
2018-09-24T23:05:52.705Z,1.17
2018-09-24T23:08:01.149Z,1.30
2018-09-24T23:10:10.092Z,1.10
2018-09-24T23:12:18.959Z,1.10
2018-09-24T23:14:27.531Z,1.47
2018-09-24T23:16:36.136Z,1.40
2018-09-24T23:18:45.347Z,1.10
2018-09-24T23:20:54.392Z,1.47
2018-09-24T23:23:03.120Z,0.97
2018-09-24T23:25:11.636Z,1.40
2018-09-24T23:27:20.700Z,1.13
2018-09-24T23:29:29.257Z,1.17
2018-09-24T23:31:37.957Z,1.23
2018-09-24T23:33:46.642Z,1.43
2018-09-24T23:35:55.109Z,1.60
2018-09-24T23:38:03.600Z,1.30
2018-09-24T23:40:12.679Z,1.70
2018-09-24T23:42:21.240Z,1.30
2018-09-24T23:44:29.921Z,1.10
2018-09-24T23:46:38.530Z,1.43
2018-09-24T23:48:46.992Z,1.70
2018-09-24T23:50:55.560Z,1.13
2018-09-24T23:53:04.501Z,1.10
2018-09-24T23:55:13.154Z,1.33
2018-09-24T23:57:21.851Z,1.57
2018-09-24T23:59:30.508Z,1.27
